sensor_id;sensor_type;location;lat;lon;timestamp;pressure;altitude;pressure_sealevel;temperature;humidity
61318;BME280;47201;40.428;-8.436;2022-07-22T00:01:25;100802.59;;;18.82;100.00
61318;BME280;47201;40.428;-8.436;2022-07-22T00:03:26;100794.69;;;18.81;100.00
61318;BME280;47201;40.428;-8.436;2022-07-22T00:05:26;100793.09;;;18.77;100.00
61318;BME280;47201;40.428;-8.436;2022-07-22T00:07:27;100796.66;;;18.76;100.00
61318;BME280;47201;40.428;-8.436;2022-07-22T00:09:27;100794.00;;;18.76;100.00
61318;BME280;47201;40.428;-8.436;2022-07-22T00:11:28;100797.56;;;18.75;100.00
61318;BME280;47201;40.428;-8.436;2022-07-22T00:13:29;100798.38;;;18.77;100.00
61318;BME280;47201;40.428;-8.436;2022-07-22T00:15:29;100789.63;;;18.75;100.00
61318;BME280;47201;40.428;-8.436;2022-07-22T00:17:30;100787.72;;;18.78;100.00
61318;BME280;47201;40.428;-8.436;2022-07-22T00:19:30;100786.75;;;18.81;100.00
61318;BME280;47201;40.428;-8.436;2022-07-22T00:21:31;100791.19;;;18.80;100.00
61318;BME280;47201;40.428;-8.436;2022-07-22T00:23:31;100788.63;;;18.77;100.00
61318;BME280;47201;40.428;-8.436;2022-07-22T00:25:32;100780.69;;;18.77;100.00
61318;BME280;47201;40.428;-8.436;2022-07-22T00:27:33;100784.31;;;18.75;100.00
61318;BME280;47201;40.428;-8.436;2022-07-22T00:29:33;100781.72;;;18.73;100.00
61318;BME280;47201;40.428;-8.436;2022-07-22T00:31:34;100778.31;;;18.69;100.00
61318;BME280;47201;40.428;-8.436;2022-07-22T00:33:34;100776.69;;;18.65;100.00
61318;BME280;47201;40.428;-8.436;2022-07-22T00:35:35;100781.28;;;18.60;100.00
61318;BME280;47201;40.428;-8.436;2022-07-22T00:37:35;100775.13;;;18.60;100.00
61318;BME280;47201;40.428;-8.436;2022-07-22T00:39:36;100781.28;;;18.60;100.00
61318;BME280;47201;40.428;-8.436;2022-07-22T00:41:37;100782.03;;;18.64;100.00
61318;BME280;47201;40.428;-8.436;2022-07-22T00:45:51;100784.59;;;18.67;100.00
61318;BME280;47201;40.428;-8.436;2022-07-22T00:47:51;100787.34;;;18.64;100.00
61318;BME280;47201;40.428;-8.436;2022-07-22T00:52:18;100782.03;;;18.64;100.00
61318;BME280;47201;40.428;-8.436;2022-07-22T00:54:18;100783.78;;;18.65;100.00
61318;BME280;47201;40.428;-8.436;2022-07-22T00:56:19;100786.41;;;18.65;100.00
61318;BME280;47201;40.428;-8.436;2022-07-22T00:58:20;100787.28;;;18.65;100.00
61318;BME280;47201;40.428;-8.436;2022-07-22T01:00:22;100788.97;;;18.68;100.00
61318;BME280;47201;40.428;-8.436;2022-07-22T01:02:22;100791.56;;;18.69;100.00
61318;BME280;47201;40.428;-8.436;2022-07-22T01:04:23;100786.41;;;18.65;100.00
61318;BME280;47201;40.428;-8.436;2022-07-22T01:06:23;100779.44;;;18.62;100.00
61318;BME280;47201;40.428;-8.436;2022-07-22T01:08:24;100779.44;;;18.62;100.00
61318;BME280;47201;40.428;-8.436;2022-07-22T01:10:25;100773.28;;;18.62;100.00
61318;BME280;47201;40.428;-8.436;2022-07-22T01:12:25;100767.19;;;18.60;100.00
61318;BME280;47201;40.428;-8.436;2022-07-22T01:14:26;100765.31;;;18.63;100.00
61318;BME280;47201;40.428;-8.436;2022-07-22T01:16:26;100770.59;;;18.63;100.00
61318;BME280;47201;40.428;-8.436;2022-07-22T01:18:27;100772.28;;;18.66;100.00
61318;BME280;47201;40.428;-8.436;2022-07-22T01:20:27;100768.66;;;18.68;100.00
61318;BME280;47201;40.428;-8.436;2022-07-22T01:22:28;100761.59;;;18.69;100.00
61318;BME280;47201;40.428;-8.436;2022-07-22T01:24:29;100769.53;;;18.69;100.00
61318;BME280;47201;40.428;-8.436;2022-07-22T01:26:29;100759.03;;;18.66;100.00
61318;BME280;47201;40.428;-8.436;2022-07-22T01:28:30;100766.09;;;18.65;100.00
61318;BME280;47201;40.428;-8.436;2022-07-22T01:30:31;100767.88;;;18.65;100.00
61318;BME280;47201;40.428;-8.436;2022-07-22T01:32:31;100761.78;;;18.63;100.00
61318;BME280;47201;40.428;-8.436;2022-07-22T01:34:32;100762.69;;;18.62;100.00
61318;BME280;47201;40.428;-8.436;2022-07-22T01:36:33;100766.28;;;18.61;100.00
61318;BME280;47201;40.428;-8.436;2022-07-22T01:38:33;100771.56;;;18.61;100.00
61318;BME280;47201;40.428;-8.436;2022-07-22T01:40:34;100770.69;;;18.60;100.00
61318;BME280;47201;40.428;-8.436;2022-07-22T01:42:34;100764.63;;;18.57;100.00
61318;BME280;47201;40.428;-8.436;2022-07-22T01:44:35;100765.59;;;18.54;100.00
61318;BME280;47201;40.428;-8.436;2022-07-22T01:46:36;100764.78;;;18.52;100.00
61318;BME280;47201;40.428;-8.436;2022-07-22T01:48:37;100761.28;;;18.51;100.00
61318;BME280;47201;40.428;-8.436;2022-07-22T01:50:37;100763.06;;;18.51;100.00
61318;BME280;47201;40.428;-8.436;2022-07-22T01:52:38;100766.47;;;18.54;100.00
61318;BME280;47201;40.428;-8.436;2022-07-22T01:54:39;100762.97;;;18.54;100.00
61318;BME280;47201;40.428;-8.436;2022-07-22T01:56:40;100753.22;;;18.54;100.00
61318;BME280;47201;40.428;-8.436;2022-07-22T01:58:41;100754.97;;;18.55;100.00
61318;BME280;47201;40.428;-8.436;2022-07-22T02:00:43;100750.53;;;18.56;100.00
61318;BME280;47201;40.428;-8.436;2022-07-22T02:02:43;100750.47;;;18.58;100.00
61318;BME280;47201;40.428;-8.436;2022-07-22T02:04:44;100747.84;;;18.58;100.00
61318;BME280;47201;40.428;-8.436;2022-07-22T02:06:45;100752.31;;;18.55;100.00
61318;BME280;47201;40.428;-8.436;2022-07-22T02:08:46;100751.53;;;18.53;100.00
61318;BME280;47201;40.428;-8.436;2022-07-22T02:11:09;100741.88;;;18.51;100.00
61318;BME280;47201;40.428;-8.436;2022-07-22T02:13:20;100748.97;;;18.50;100.00
61318;BME280;47201;40.428;-8.436;2022-07-22T02:15:20;100748.91;;;18.52;100.00
61318;BME280;47201;40.428;-8.436;2022-07-22T02:17:21;100750.63;;;18.53;100.00
61318;BME280;47201;40.428;-8.436;2022-07-22T02:19:22;100748.75;;;18.57;100.00
61318;BME280;47201;40.428;-8.436;2022-07-22T02:21:22;100742.44;;;18.61;100.00
61318;BME280;47201;40.428;-8.436;2022-07-22T02:23:27;100744.97;;;18.64;100.00
61318;BME280;47201;40.428;-8.436;2022-07-22T02:25:28;100748.50;;;18.64;100.00
61318;BME280;47201;40.428;-8.436;2022-07-22T02:27:31;100744.06;;;18.65;100.00
61318;BME280;47201;40.428;-8.436;2022-07-22T02:29:32;100750.38;;;18.61;100.00
61318;BME280;47201;40.428;-8.436;2022-07-22T02:31:33;100755.88;;;18.54;100.00
61318;BME280;47201;40.428;-8.436;2022-07-22T02:33:34;100749.78;;;18.52;100.00
61318;BME280;47201;40.428;-8.436;2022-07-22T02:35:35;100754.97;;;18.55;100.00
61318;BME280;47201;40.428;-8.436;2022-07-22T02:37:37;100755.94;;;18.53;100.00
61318;BME280;47201;40.428;-8.436;2022-07-22T02:39:38;100754.16;;;18.53;100.00
61318;BME280;47201;40.428;-8.436;2022-07-22T02:41:38;100750.53;;;18.56;100.00
61318;BME280;47201;40.428;-8.436;2022-07-22T02:43:39;100760.25;;;18.55;100.00
61318;BME280;47201;40.428;-8.436;2022-07-22T02:45:41;100756.84;;;18.52;100.00
61318;BME280;47201;40.428;-8.436;2022-07-22T02:47:48;100763.03;;;18.52;100.00
61318;BME280;47201;40.428;-8.436;2022-07-22T02:49:49;100760.47;;;18.49;100.00
61318;BME280;47201;40.428;-8.436;2022-07-22T02:51:50;100768.47;;;18.48;100.00
61318;BME280;47201;40.428;-8.436;2022-07-22T02:53:51;100769.31;;;18.48;100.00
61318;BME280;47201;40.428;-8.436;2022-07-22T02:55:52;100764.94;;;18.47;100.00
61318;BME280;47201;40.428;-8.436;2022-07-22T02:57:53;100763.16;;;18.48;100.00
61318;BME280;47201;40.428;-8.436;2022-07-22T02:59:54;100763.22;;;18.46;100.00
61318;BME280;47201;40.428;-8.436;2022-07-22T03:01:56;100762.41;;;18.44;100.00
61318;BME280;47201;40.428;-8.436;2022-07-22T03:03:57;100757.22;;;18.41;100.00
61318;BME280;47201;40.428;-8.436;2022-07-22T03:05:59;100758.13;;;18.40;100.00
61318;BME280;47201;40.428;-8.436;2022-07-22T03:08:13;100753.78;;;18.37;100.00
61318;BME280;47201;40.428;-8.436;2022-07-22T03:10:14;100754.78;;;18.35;100.00
61318;BME280;47201;40.428;-8.436;2022-07-22T03:12:15;100749.56;;;18.32;100.00
61318;BME280;47201;40.428;-8.436;2022-07-22T03:14:16;100744.25;;;18.33;100.00
61318;BME280;47201;40.428;-8.436;2022-07-22T03:16:18;100743.41;;;18.31;100.00
61318;BME280;47201;40.428;-8.436;2022-07-22T03:18:20;100745.22;;;18.31;100.00
61318;BME280;47201;40.428;-8.436;2022-07-22T03:20:21;100744.28;;;18.32;100.00
61318;BME280;47201;40.428;-8.436;2022-07-22T03:22:22;100740.72;;;18.33;100.00
61318;BME280;47201;40.428;-8.436;2022-07-22T03:24:22;100734.63;;;18.31;100.00
61318;BME280;47201;40.428;-8.436;2022-07-22T03:26:23;100730.28;;;18.28;100.00
61318;BME280;47201;40.428;-8.436;2022-07-22T03:28:24;100724.22;;;18.24;100.00
61318;BME280;47201;40.428;-8.436;2022-07-22T03:30:26;100721.50;;;18.28;100.00
61318;BME280;47201;40.428;-8.436;2022-07-22T03:32:27;100725.88;;;18.29;100.00
61318;BME280;47201;40.428;-8.436;2022-07-22T03:34:27;100723.31;;;18.26;100.00
61318;BME280;47201;40.428;-8.436;2022-07-22T03:36:36;100723.31;;;18.26;100.00
61318;BME280;47201;40.428;-8.436;2022-07-22T03:38:37;100719.75;;;18.27;100.00
61318;BME280;47201;40.428;-8.436;2022-07-22T03:40:38;100716.97;;;18.31;100.00
61318;BME280;47201;40.428;-8.436;2022-07-22T03:42:39;100721.25;;;18.35;100.00
61318;BME280;47201;40.428;-8.436;2022-07-22T03:44:39;100711.44;;;18.39;100.00
61318;BME280;47201;40.428;-8.436;2022-07-22T03:46:40;100710.44;;;18.42;100.00
61318;BME280;47201;40.428;-8.436;2022-07-22T03:48:41;100712.19;;;18.43;100.00
61318;BME280;47201;40.428;-8.436;2022-07-22T03:50:42;100717.41;;;18.44;100.00
61318;BME280;47201;40.428;-8.436;2022-07-22T03:52:43;100707.84;;;18.40;100.00
61318;BME280;47201;40.428;-8.436;2022-07-22T03:54:45;100718.53;;;18.37;100.00
61318;BME280;47201;40.428;-8.436;2022-07-22T03:56:46;100708.81;;;18.37;100.00
61318;BME280;47201;40.428;-8.436;2022-07-22T03:58:46;100715.78;;;18.40;100.00
61318;BME280;47201;40.428;-8.436;2022-07-22T04:00:47;100714.84;;;18.41;100.00
61318;BME280;47201;40.428;-8.436;2022-07-22T04:02:48;100718.31;;;18.43;100.00
61318;BME280;47201;40.428;-8.436;2022-07-22T04:05:05;100723.56;;;18.45;100.00
61318;BME280;47201;40.428;-8.436;2022-07-22T04:07:06;100713.09;;;18.42;100.00
61318;BME280;47201;40.428;-8.436;2022-07-22T04:09:10;100715.97;;;18.35;100.00
61318;BME280;47201;40.428;-8.436;2022-07-22T04:11:10;100716.13;;;18.29;100.00
61318;BME280;47201;40.428;-8.436;2022-07-22T04:13:11;100716.63;;;18.15;100.00
61318;BME280;47201;40.428;-8.436;2022-07-22T04:15:18;100718.84;;;18.01;100.00
61318;BME280;47201;40.428;-8.436;2022-07-22T04:17:19;100713.00;;;17.89;100.00
61318;BME280;47201;40.428;-8.436;2022-07-22T04:19:20;100711.97;;;17.95;100.00
61318;BME280;47201;40.428;-8.436;2022-07-22T04:21:25;100707.69;;;17.89;100.00
61318;BME280;47201;40.428;-8.436;2022-07-22T04:23:28;100720.84;;;17.92;100.00
61318;BME280;47201;40.428;-8.436;2022-07-22T04:25:45;100719.09;;;17.91;100.00
61318;BME280;47201;40.428;-8.436;2022-07-22T04:27:46;100713.25;;;17.82;100.00
61318;BME280;47201;40.428;-8.436;2022-07-22T04:29:47;100718.56;;;17.80;100.00
61318;BME280;47201;40.428;-8.436;2022-07-22T04:31:48;100723.97;;;17.77;100.00
61318;BME280;47201;40.428;-8.436;2022-07-22T04:33:52;100720.22;;;17.84;100.00
61318;BME280;47201;40.428;-8.436;2022-07-22T04:35:53;100731.31;;;17.97;100.00
61318;BME280;47201;40.428;-8.436;2022-07-22T04:37:53;100727.75;;;17.98;100.00
61318;BME280;47201;40.428;-8.436;2022-07-22T04:39:54;100733.06;;;17.97;100.00
61318;BME280;47201;40.428;-8.436;2022-07-22T04:41:55;100735.81;;;17.92;100.00
61318;BME280;47201;40.428;-8.436;2022-07-22T04:43:57;100730.50;;;17.95;100.00
61318;BME280;47201;40.428;-8.436;2022-07-22T04:46:01;100729.47;;;17.99;100.00
61318;BME280;47201;40.428;-8.436;2022-07-22T04:48:07;100732.69;;;18.09;100.00
61318;BME280;47201;40.428;-8.436;2022-07-22T04:50:08;100730.81;;;18.13;100.00
61318;BME280;47201;40.428;-8.436;2022-07-22T04:52:09;100735.94;;;18.17;100.00
61318;BME280;47201;40.428;-8.436;2022-07-22T04:54:17;100738.56;;;18.17;100.00
61318;BME280;47201;40.428;-8.436;2022-07-22T04:56:19;100742.09;;;18.18;100.00
61318;BME280;47201;40.428;-8.436;2022-07-22T04:58:20;100749.97;;;18.19;100.00
61318;BME280;47201;40.428;-8.436;2022-07-22T05:00:21;100753.53;;;18.18;100.00
61318;BME280;47201;40.428;-8.436;2022-07-22T05:02:27;100746.41;;;18.20;100.00
61318;BME280;47201;40.428;-8.436;2022-07-22T05:04:28;100747.09;;;18.27;100.00
61318;BME280;47201;40.428;-8.436;2022-07-22T05:06:29;100743.41;;;18.31;100.00
61318;BME280;47201;40.428;-8.436;2022-07-22T05:08:30;100739.81;;;18.34;100.00
61318;BME280;47201;40.428;-8.436;2022-07-22T05:10:31;100740.63;;;18.36;100.00
61318;BME280;47201;40.428;-8.436;2022-07-22T05:12:32;100743.41;;;18.31;100.00
61318;BME280;47201;40.428;-8.436;2022-07-22T05:14:34;100750.50;;;18.31;100.00
61318;BME280;47201;40.428;-8.436;2022-07-22T05:16:35;100744.28;;;18.32;100.00
61318;BME280;47201;40.428;-8.436;2022-07-22T05:18:37;100746.06;;;18.31;100.00
61318;BME280;47201;40.428;-8.436;2022-07-22T05:20:40;100759.97;;;18.38;100.00
61318;BME280;47201;40.428;-8.436;2022-07-22T05:22:41;100747.44;;;18.43;100.00
61318;BME280;47201;40.428;-8.436;2022-07-22T05:24:47;100748.19;;;18.47;100.00
61318;BME280;47201;40.428;-8.436;2022-07-22T05:26:49;100743.75;;;18.47;100.00
61318;BME280;47201;40.428;-8.436;2022-07-22T05:28:50;100747.22;;;18.49;100.00
61318;BME280;47201;40.428;-8.436;2022-07-22T05:30:50;100746.47;;;18.46;100.00
61318;BME280;47201;40.428;-8.436;2022-07-22T05:32:51;100754.56;;;18.41;100.00
61318;BME280;47201;40.428;-8.436;2022-07-22T05:35:00;100754.69;;;18.38;100.00
61318;BME280;47201;40.428;-8.436;2022-07-22T05:37:01;100757.56;;;18.30;100.00
61318;BME280;47201;40.428;-8.436;2022-07-22T05:39:02;100756.75;;;18.28;100.00
61318;BME280;47201;40.428;-8.436;2022-07-22T05:41:03;100762.22;;;18.23;100.00
61318;BME280;47201;40.428;-8.436;2022-07-22T05:43:04;100768.34;;;18.24;100.00
61318;BME280;47201;40.428;-8.436;2022-07-22T05:45:05;100774.50;;;18.24;100.00
61318;BME280;47201;40.428;-8.436;2022-07-22T05:47:06;100773.66;;;18.24;100.00
61318;BME280;47201;40.428;-8.436;2022-07-22T05:49:06;100765.63;;;18.27;100.00
61318;BME280;47201;40.428;-8.436;2022-07-22T05:51:17;100775.44;;;18.23;100.00
61318;BME280;47201;40.428;-8.436;2022-07-22T05:53:19;100770.03;;;18.27;100.00
61318;BME280;47201;40.428;-8.436;2022-07-22T05:55:20;100766.47;;;18.28;100.00
61318;BME280;47201;40.428;-8.436;2022-07-22T05:57:21;100768.09;;;18.32;100.00
61318;BME280;47201;40.428;-8.436;2022-07-22T05:59:22;100760.06;;;18.35;100.00
61318;BME280;47201;40.428;-8.436;2022-07-22T06:01:23;100767.78;;;18.41;100.00
61318;BME280;47201;40.428;-8.436;2022-07-22T06:03:25;100772.69;;;18.53;100.00
61318;BME280;47201;40.428;-8.436;2022-07-22T06:05:25;100769.78;;;18.61;100.00
61318;BME280;47201;40.428;-8.436;2022-07-22T06:07:27;100768.72;;;18.67;100.00
61318;BME280;47201;40.428;-8.436;2022-07-22T06:09:33;100759.78;;;18.69;100.00
61318;BME280;47201;40.428;-8.436;2022-07-22T06:11:34;100763.88;;;18.78;100.00
61318;BME280;47201;40.428;-8.436;2022-07-22T06:13:35;100757.69;;;18.79;100.00
61318;BME280;47201;40.428;-8.436;2022-07-22T06:15:36;100756.66;;;18.83;100.00
61318;BME280;47201;40.428;-8.436;2022-07-22T06:17:37;100751.25;;;18.86;100.00
61318;BME280;47201;40.428;-8.436;2022-07-22T06:19:39;100755.78;;;18.83;100.00
61318;BME280;47201;40.428;-8.436;2022-07-22T06:21:39;100757.47;;;18.85;100.00
61318;BME280;47201;40.428;-8.436;2022-07-22T06:23:43;100767.13;;;18.86;100.00
61318;BME280;47201;40.428;-8.436;2022-07-22T06:25:44;100765.41;;;18.85;100.00
61318;BME280;47201;40.428;-8.436;2022-07-22T06:27:56;100775.09;;;18.86;100.00
61318;BME280;47201;40.428;-8.436;2022-07-22T06:29:57;100770.59;;;18.89;100.00
61318;BME280;47201;40.428;-8.436;2022-07-22T06:31:58;100773.13;;;18.93;100.00
61318;BME280;47201;40.428;-8.436;2022-07-22T06:33:58;100768.53;;;18.98;100.00
61318;BME280;47201;40.428;-8.436;2022-07-22T06:36:09;100770.91;;;19.06;100.00
61318;BME280;47201;40.428;-8.436;2022-07-22T06:38:12;100776.09;;;19.09;100.00
61318;BME280;47201;40.428;-8.436;2022-07-22T06:40:35;100777.00;;;19.08;100.00
61318;BME280;47201;40.428;-8.436;2022-07-22T06:42:56;100771.69;;;19.08;100.00
61318;BME280;47201;40.428;-8.436;2022-07-22T06:45:03;100770.94;;;19.05;100.00
61318;BME280;47201;40.428;-8.436;2022-07-22T06:47:30;100776.22;;;19.06;100.00
61318;BME280;47201;40.428;-8.436;2022-07-22T06:49:32;100781.50;;;19.06;100.00
61318;BME280;47201;40.428;-8.436;2022-07-22T06:51:33;100784.91;;;19.10;99.98
61318;BME280;47201;40.428;-8.436;2022-07-22T06:53:35;100788.25;;;19.15;100.00
61318;BME280;47201;40.428;-8.436;2022-07-22T06:55:37;100790.38;;;19.29;99.49
61318;BME280;47201;40.428;-8.436;2022-07-22T06:57:42;100792.47;;;19.44;98.52
61318;BME280;47201;40.428;-8.436;2022-07-22T06:59:43;100794.84;;;19.52;97.89
61318;BME280;47201;40.428;-8.436;2022-07-22T07:01:44;100795.44;;;19.60;96.58
61318;BME280;47201;40.428;-8.436;2022-07-22T07:03:45;100795.00;;;19.71;96.36
61318;BME280;47201;40.428;-8.436;2022-07-22T07:05:46;100791.28;;;19.77;95.21
61318;BME280;47201;40.428;-8.436;2022-07-22T07:07:46;100799.69;;;19.88;94.54
61318;BME280;47201;40.428;-8.436;2022-07-22T07:09:47;100797.34;;;20.03;94.19
61318;BME280;47201;40.428;-8.436;2022-07-22T07:11:57;100799.91;;;20.06;91.71
61318;BME280;47201;40.428;-8.436;2022-07-22T07:14:16;100798.00;;;20.09;91.90
61318;BME280;47201;40.428;-8.436;2022-07-22T07:16:17;100804.78;;;20.17;91.87
61318;BME280;47201;40.428;-8.436;2022-07-22T07:18:17;100811.31;;;20.30;92.19
61318;BME280;47201;40.428;-8.436;2022-07-22T07:20:19;100814.34;;;20.21;91.58
61318;BME280;47201;40.428;-8.436;2022-07-22T07:22:20;100819.34;;;20.28;91.56
61318;BME280;47201;40.428;-8.436;2022-07-22T07:24:21;100824.69;;;20.27;91.28
61318;BME280;47201;40.428;-8.436;2022-07-22T07:26:22;100831.66;;;20.29;90.70
61318;BME280;47201;40.428;-8.436;2022-07-22T07:28:23;100830.44;;;20.38;90.79
61318;BME280;47201;40.428;-8.436;2022-07-22T07:30:30;100823.03;;;20.47;90.82
61318;BME280;47201;40.428;-8.436;2022-07-22T07:32:30;100819.59;;;20.65;89.43
61318;BME280;47201;40.428;-8.436;2022-07-22T07:34:31;100827.97;;;20.99;88.74
61318;BME280;47201;40.428;-8.436;2022-07-22T07:36:31;100821.31;;;21.30;85.83
61318;BME280;47201;40.428;-8.436;2022-07-22T07:38:32;100833.97;;;21.64;84.82
61318;BME280;47201;40.428;-8.436;2022-07-22T07:40:36;100828.94;;;21.77;83.01
61318;BME280;47201;40.428;-8.436;2022-07-22T07:42:36;100827.06;;;21.79;82.11
61318;BME280;47201;40.428;-8.436;2022-07-22T07:44:37;100825.81;;;21.67;81.97
61318;BME280;47201;40.428;-8.436;2022-07-22T07:46:37;100828.00;;;21.78;81.69
61318;BME280;47201;40.428;-8.436;2022-07-22T07:48:38;100835.84;;;21.62;82.87
61318;BME280;47201;40.428;-8.436;2022-07-22T07:50:39;100836.09;;;21.56;83.59
61318;BME280;47201;40.428;-8.436;2022-07-22T07:52:40;100836.34;;;21.70;83.08
61318;BME280;47201;40.428;-8.436;2022-07-22T07:54:41;100838.56;;;21.61;82.67
61318;BME280;47201;40.428;-8.436;2022-07-22T07:56:42;100834.59;;;21.30;83.98
61318;BME280;47201;40.428;-8.436;2022-07-22T07:58:43;100839.41;;;21.01;85.78
61318;BME280;47201;40.428;-8.436;2022-07-22T08:00:44;100832.47;;;20.97;86.34
61318;BME280;47201;40.428;-8.436;2022-07-22T08:02:45;100829.56;;;21.03;85.45
61318;BME280;47201;40.428;-8.436;2022-07-22T08:04:45;100840.19;;;21.03;85.39
61318;BME280;47201;40.428;-8.436;2022-07-22T08:06:50;100844.44;;;21.28;84.81
61318;BME280;47201;40.428;-8.436;2022-07-22T08:08:51;100835.44;;;21.30;84.22
61318;BME280;47201;40.428;-8.436;2022-07-22T08:11:02;100833.03;;;21.65;83.24
61318;BME280;47201;40.428;-8.436;2022-07-22T08:13:12;100830.84;;;22.12;82.06
61318;BME280;47201;40.428;-8.436;2022-07-22T08:15:34;100827.88;;;22.74;78.67
61318;BME280;47201;40.428;-8.436;2022-07-22T08:17:41;100829.09;;;23.02;76.40
61318;BME280;47201;40.428;-8.436;2022-07-22T08:19:41;100821.16;;;23.35;74.34
61318;BME280;47201;40.428;-8.436;2022-07-22T08:21:42;100839.94;;;23.50;72.64
61318;BME280;47201;40.428;-8.436;2022-07-22T08:23:59;100851.19;;;23.39;73.92
61318;BME280;47201;40.428;-8.436;2022-07-22T08:25:59;100849.81;;;23.14;74.28
61318;BME280;47201;40.428;-8.436;2022-07-22T08:28:00;100847.00;;;23.17;74.16
61318;BME280;47201;40.428;-8.436;2022-07-22T08:30:01;100844.09;;;23.55;72.97
61318;BME280;47201;40.428;-8.436;2022-07-22T08:32:04;100846.88;;;23.70;72.77
61318;BME280;47201;40.428;-8.436;2022-07-22T08:34:05;100838.56;;;24.24;70.99
61318;BME280;47201;40.428;-8.436;2022-07-22T08:36:06;100845.56;;;25.48;65.75
61318;BME280;47201;40.428;-8.436;2022-07-22T08:38:07;100841.25;;;26.71;62.51
61318;BME280;47201;40.428;-8.436;2022-07-22T08:40:08;100831.44;;;28.61;55.74
61318;BME280;47201;40.428;-8.436;2022-07-22T08:42:10;100837.28;;;30.38;51.62
61318;BME280;47201;40.428;-8.436;2022-07-22T08:44:11;100836.34;;;31.45;47.19
61318;BME280;47201;40.428;-8.436;2022-07-22T08:46:12;100834.31;;;32.58;44.64
61318;BME280;47201;40.428;-8.436;2022-07-22T08:48:31;100835.06;;;34.39;40.39
61318;BME280;47201;40.428;-8.436;2022-07-22T08:50:49;100839.00;;;36.27;35.33
61318;BME280;47201;40.428;-8.436;2022-07-22T08:52:57;100843.47;;;36.45;34.27
61318;BME280;47201;40.428;-8.436;2022-07-22T08:54:58;100844.84;;;36.49;32.78
61318;BME280;47201;40.428;-8.436;2022-07-22T08:56:59;100844.38;;;35.94;33.67
61318;BME280;47201;40.428;-8.436;2022-07-22T08:59:00;100842.91;;;36.16;33.46
61318;BME280;47201;40.428;-8.436;2022-07-22T09:01:05;100839.88;;;36.86;31.48
61318;BME280;47201;40.428;-8.436;2022-07-22T09:05:26;100850.44;;;37.05;30.67
61318;BME280;47201;40.428;-8.436;2022-07-22T09:07:33;100850.31;;;37.46;29.53
61318;BME280;47201;40.428;-8.436;2022-07-22T09:10:00;100856.56;;;36.66;30.16
61318;BME280;47201;40.428;-8.436;2022-07-22T09:12:52;100861.81;;;37.73;29.11
61318;BME280;47201;40.428;-8.436;2022-07-22T09:15:14;100851.13;;;36.82;29.63
61318;BME280;47201;40.428;-8.436;2022-07-22T09:17:38;100844.78;;;36.32;30.81
61318;BME280;47201;40.428;-8.436;2022-07-22T09:19:57;100852.22;;;35.63;31.37
61318;BME280;47201;40.428;-8.436;2022-07-22T09:22:07;100847.38;;;35.83;31.49
61318;BME280;47201;40.428;-8.436;2022-07-22T09:24:41;100844.66;;;36.75;30.36
61318;BME280;47201;40.428;-8.436;2022-07-22T09:27:04;100847.66;;;37.86;28.79
61318;BME280;47201;40.428;-8.436;2022-07-22T09:29:25;100851.16;;;37.95;28.47
61318;BME280;47201;40.428;-8.436;2022-07-22T09:31:44;100852.34;;;36.88;29.33
61318;BME280;47201;40.428;-8.436;2022-07-22T09:34:25;100852.28;;;36.22;30.67
61318;BME280;47201;40.428;-8.436;2022-07-22T09:36:26;100852.56;;;37.35;29.02
61318;BME280;47201;40.428;-8.436;2022-07-22T09:38:29;100845.34;;;36.86;29.22
61318;BME280;47201;40.428;-8.436;2022-07-22T09:40:36;100849.69;;;34.82;32.28
61318;BME280;47201;40.428;-8.436;2022-07-22T09:42:43;100853.59;;;34.43;33.33
61318;BME280;47201;40.428;-8.436;2022-07-22T09:44:45;100858.50;;;34.30;33.71
61318;BME280;47201;40.428;-8.436;2022-07-22T09:46:57;100849.66;;;35.53;32.22
61318;BME280;47201;40.428;-8.436;2022-07-22T09:49:57;100844.75;;;35.99;31.56
61318;BME280;47201;40.428;-8.436;2022-07-22T09:52:20;100845.88;;;35.46;32.02
61318;BME280;47201;40.428;-8.436;2022-07-22T09:54:36;100848.06;;;36.61;30.40
61318;BME280;47201;40.428;-8.436;2022-07-22T09:56:37;100852.41;;;35.35;32.30
61318;BME280;47201;40.428;-8.436;2022-07-22T09:58:39;100836.50;;;36.59;30.61
61318;BME280;47201;40.428;-8.436;2022-07-22T10:00:49;100847.38;;;37.08;29.78
61318;BME280;47201;40.428;-8.436;2022-07-22T10:02:55;100852.41;;;36.20;30.94
61318;BME280;47201;40.428;-8.436;2022-07-22T10:04:56;100847.69;;;36.31;30.83
61318;BME280;47201;40.428;-8.436;2022-07-22T10:06:59;100843.13;;;36.48;30.69
61318;BME280;47201;40.428;-8.436;2022-07-22T10:09:06;100854.78;;;36.07;31.03
61318;BME280;47201;40.428;-8.436;2022-07-22T10:11:09;100855.53;;;35.83;31.38
61318;BME280;47201;40.428;-8.436;2022-07-22T10:13:12;100854.97;;;35.71;31.79
61318;BME280;47201;40.428;-8.436;2022-07-22T10:15:13;100859.50;;;35.28;32.24
61318;BME280;47201;40.428;-8.436;2022-07-22T10:17:14;100853.09;;;36.14;31.48
61318;BME280;47201;40.428;-8.436;2022-07-22T10:19:18;100851.13;;;35.82;31.75
61318;BME280;47201;40.428;-8.436;2022-07-22T10:21:19;100856.66;;;36.23;30.99
61318;BME280;47201;40.428;-8.436;2022-07-22T10:23:30;100856.06;;;36.79;30.34
61318;BME280;47201;40.428;-8.436;2022-07-22T10:25:32;100852.47;;;36.45;30.99
61318;BME280;47201;40.428;-8.436;2022-07-22T10:27:58;100865.50;;;35.66;31.71
61318;BME280;47201;40.428;-8.436;2022-07-22T10:29:59;100854.78;;;35.30;32.55
61318;BME280;47201;40.428;-8.436;2022-07-22T10:34:18;100858.81;;;35.52;32.35
61318;BME280;47201;40.428;-8.436;2022-07-22T10:36:34;100854.53;;;36.84;30.61
61318;BME280;47201;40.428;-8.436;2022-07-22T10:38:35;100855.03;;;36.72;30.50
61318;BME280;47201;40.428;-8.436;2022-07-22T10:40:46;100855.22;;;36.78;30.36
61318;BME280;47201;40.428;-8.436;2022-07-22T10:44:57;100842.84;;;37.40;29.77